createdAt,value
2022-11-21T00:05:58.475Z,97947.31
2022-11-21T00:12:00.401Z,97945.03
2022-11-21T00:18:05.643Z,97941.69
2022-11-21T00:24:10.144Z,97933.44
2022-11-21T00:30:12.597Z,97933.88
2022-11-21T00:36:14.503Z,97935.19
2022-11-21T00:42:16.416Z,97935.59
2022-11-21T00:48:18.339Z,97932.16
2022-11-21T00:54:20.522Z,97929.88
2022-11-21T01:00:24.392Z,97929.34
2022-11-21T01:06:26.321Z,97937.00
2022-11-21T01:12:28.288Z,97929.78
2022-11-21T01:18:30.261Z,97928.75
2022-11-21T01:24:32.285Z,97927.63
2022-11-21T01:30:34.236Z,97919.16
2022-11-21T01:36:39.185Z,97912.84
2022-11-21T01:43:03.064Z,97918.75
2022-11-21T01:49:27.409Z,97921.47
2022-11-21T01:55:34.488Z,97939.41
2022-11-21T02:01:37.925Z,97956.56
2022-11-21T02:07:43.241Z,97962.47
2022-11-21T02:13:45.266Z,97956.91
2022-11-21T02:19:56.874Z,97963.16
2022-11-21T02:25:59.643Z,97976.75
2022-11-21T02:32:08.827Z,97976.56
2022-11-21T02:38:21.112Z,97980.53
2022-11-21T02:44:31.734Z,97982.03
2022-11-21T02:50:36.676Z,97971.03
2022-11-21T02:56:38.634Z,97976.63
2022-11-21T03:02:40.873Z,97973.97
2022-11-21T03:08:42.782Z,97976.44
2022-11-21T03:14:44.908Z,97994.38
2022-11-21T03:21:14.587Z,97996.19
2022-11-21T03:27:16.562Z,98005.91
2022-11-21T03:39:34.377Z,98015.63
2022-11-21T03:45:40.687Z,98013.34
2022-11-21T03:51:43.872Z,98010.50
2022-11-21T03:57:49.301Z,98033.59
2022-11-21T04:03:52.313Z,98047.28
2022-11-21T04:09:56.496Z,98034.25
2022-11-21T04:15:58.578Z,98035.06
2022-11-21T04:22:00.517Z,98057.28
2022-11-21T04:28:04.508Z,98071.28
2022-11-21T04:34:06.484Z,98080.69
2022-11-21T04:40:09.175Z,98091.56
2022-11-21T04:46:11.119Z,98084.47
2022-11-21T04:52:13.127Z,98091.59
2022-11-21T04:58:15.122Z,98102.63
2022-11-21T05:04:17.166Z,98097.00
2022-11-21T05:10:19.105Z,98104.25
2022-11-21T05:16:21.014Z,98116.41
2022-11-21T05:22:23.005Z,98118.41
2022-11-21T05:28:25.121Z,98114.47
2022-11-21T05:34:27.322Z,98108.56
2022-11-21T05:40:29.472Z,98105.22
2022-11-21T05:46:37.615Z,98105.22
2022-11-21T05:52:39.537Z,98103.91
2022-11-21T05:58:43.045Z,98113.81
2022-11-21T06:04:44.945Z,98108.69
2022-11-21T06:10:46.908Z,98116.59
2022-11-21T06:16:50.130Z,98121.84
2022-11-21T06:22:55.113Z,98123.81
2022-11-21T06:29:07.156Z,98126.16
2022-11-21T06:35:09.275Z,98130.44
2022-11-21T06:41:31.941Z,98145.28
2022-11-21T06:47:35.159Z,98145.28
2022-11-21T06:53:37.105Z,98152.69
2022-11-21T06:59:48.008Z,98153.00
2022-11-21T07:05:50.797Z,98160.91
2022-11-21T07:11:52.699Z,98165.56
2022-11-21T07:17:54.601Z,98180.72
2022-11-21T07:23:56.555Z,98183.88
2022-11-21T07:29:58.624Z,98203.81
2022-11-21T07:36:11.221Z,98187.66
2022-11-21T07:42:13.138Z,98185.19
2022-11-21T07:48:15.111Z,98191.28
2022-11-21T07:54:17.162Z,98191.63
2022-11-21T08:00:19.450Z,98189.28
2022-11-21T08:06:21.534Z,98203.97
2022-11-21T08:12:23.524Z,98194.75
2022-11-21T08:18:31.760Z,98203.00
2022-11-21T08:24:33.662Z,98184.16
2022-11-21T08:30:36.725Z,98190.41
2022-11-21T08:36:51.877Z,98192.72
2022-11-21T08:43:08.387Z,98199.34
2022-11-21T08:49:10.516Z,98200.63
2022-11-21T08:55:12.896Z,98195.81
2022-11-21T09:01:17.754Z,98199.78
2022-11-21T09:07:19.748Z,98206.66
2022-11-21T09:13:21.998Z,98195.50
2022-11-21T09:19:36.441Z,98204.53
2022-11-21T09:25:38.739Z,98210.03
2022-11-21T09:31:44.335Z,98217.88
2022-11-21T09:37:47.020Z,98220.50
2022-11-21T09:44:15.751Z,98228.38
2022-11-21T09:50:34.635Z,98219.72
2022-11-21T09:56:42.216Z,98219.19
2022-11-21T10:02:56.892Z,98202.34
2022-11-21T10:09:44.520Z,98193.78
2022-11-21T10:16:08.231Z,98186.19
2022-11-21T10:30:07.144Z,98192.28
2022-11-21T10:36:43.386Z,98179.06
2022-11-21T10:43:00.139Z,98166.72
2022-11-21T10:49:04.776Z,98161.88
2022-11-21T10:55:14.783Z,98169.59
2022-11-21T11:01:28.815Z,98165.19
2022-11-21T11:07:30.908Z,98164.50
2022-11-21T11:13:50.856Z,98156.31
2022-11-21T11:20:32.111Z,98151.44
2022-11-21T11:26:34.178Z,98143.13
2022-11-21T11:32:41.373Z,98126.06
2022-11-21T11:38:57.658Z,98107.34
2022-11-21T11:45:36.610Z,98113.16
2022-11-21T11:51:47.114Z,98110.78
2022-11-21T11:57:54.567Z,98105.94
2022-11-21T12:04:23.806Z,98098.06
2022-11-21T12:11:23.701Z,98083.34
2022-11-21T12:17:57.630Z,98054.78
2022-11-21T12:24:25.124Z,98048.53
2022-11-21T12:31:09.480Z,98059.59
2022-11-21T12:37:26.248Z,98051.53
2022-11-21T12:43:57.711Z,98046.81
2022-11-21T12:50:49.025Z,98041.50
2022-11-21T12:57:17.084Z,98021.50
2022-11-21T13:04:05.426Z,98028.44
2022-11-21T13:10:15.344Z,98021.63
2022-11-21T13:16:37.051Z,98014.00
2022-11-21T13:22:39.011Z,98006.22
2022-11-21T13:28:46.042Z,98002.97
2022-11-21T13:34:59.720Z,97994.41
2022-11-21T13:41:20.133Z,97982.66
2022-11-21T13:48:04.325Z,97965.88
2022-11-21T13:54:29.113Z,97963.66
2022-11-21T14:01:07.770Z,97963.88
2022-11-21T14:07:35.511Z,97967.28
2022-11-21T14:13:39.019Z,97975.13
2022-11-21T14:19:42.119Z,97972.38
2022-11-21T14:26:03.437Z,97950.75
2022-11-21T14:32:06.219Z,97941.50
2022-11-21T14:38:08.282Z,97940.84
2022-11-21T14:44:10.135Z,97924.59
2022-11-21T14:50:33.471Z,97916.13
2022-11-21T14:56:35.457Z,97912.38
2022-11-21T15:02:37.871Z,97890.41
2022-11-21T15:15:19.028Z,97891.38
2022-11-21T15:21:21.049Z,97880.97
2022-11-21T15:27:32.803Z,97862.59
2022-11-21T15:34:19.205Z,97851.31
2022-11-21T15:40:20.488Z,97850.31
2022-11-21T15:46:25.382Z,97850.25
2022-11-21T15:52:27.325Z,97861.78
2022-11-21T15:58:29.311Z,97849.41
2022-11-21T16:04:31.257Z,97849.94
2022-11-21T16:10:33.195Z,97843.41
2022-11-21T16:16:43.155Z,97845.03
2022-11-21T16:22:47.823Z,97834.22
2022-11-21T16:28:58.007Z,97818.88
2022-11-21T16:41:19.494Z,97804.34
2022-11-21T16:47:21.558Z,97809.34
2022-11-21T16:53:23.480Z,97786.88
2022-11-21T16:59:25.406Z,97773.97
2022-11-21T17:05:27.432Z,97767.75
2022-11-21T17:11:31.417Z,97733.06
2022-11-21T17:17:33.360Z,97726.16
2022-11-21T17:23:49.514Z,97703.38
2022-11-21T17:29:51.441Z,97701.09
2022-11-21T17:35:53.422Z,97687.06
2022-11-21T17:41:55.528Z,97699.19
2022-11-21T17:47:57.557Z,97678.03
2022-11-21T17:54:01.045Z,97666.91
2022-11-21T18:00:04.984Z,97652.34
2022-11-21T18:06:13.114Z,97646.88
2022-11-21T18:12:15.063Z,97646.31
2022-11-21T18:18:22.196Z,97631.44
2022-11-21T18:24:24.131Z,97618.22
2022-11-21T18:30:26.013Z,97627.00
2022-11-21T18:36:33.812Z,97608.41
2022-11-21T18:42:35.755Z,97591.91
2022-11-21T18:49:00.647Z,97587.56
2022-11-21T18:55:00.678Z,97571.47
2022-11-21T19:01:12.445Z,97565.28
2022-11-21T19:07:14.427Z,97552.53
2022-11-21T19:13:16.421Z,97561.59
2022-11-21T19:19:37.475Z,97565.28
2022-11-21T19:25:41.755Z,97547.00
2022-11-21T19:31:55.339Z,97533.09
2022-11-21T19:37:57.271Z,97534.81
2022-11-21T19:44:00.957Z,97541.75
2022-11-21T19:50:03.411Z,97575.06
2022-11-21T19:56:17.749Z,97568.25
2022-11-21T20:02:21.559Z,97586.31
2022-11-21T20:08:35.647Z,97581.94
2022-11-21T20:14:37.715Z,97563.78
2022-11-21T20:20:39.618Z,97562.25
2022-11-21T20:26:42.162Z,97532.28
2022-11-21T20:32:44.683Z,97543.41
2022-11-21T20:39:02.506Z,97531.41
2022-11-21T20:46:06.298Z,97535.72
2022-11-21T20:57:55.282Z,97564.53
2022-11-21T21:03:57.749Z,97555.91
2022-11-21T21:10:02.150Z,97548.50
2022-11-21T21:16:12.623Z,97544.66
2022-11-21T21:22:14.672Z,97533.91
2022-11-21T21:28:23.002Z,97537.41
2022-11-21T21:34:25.077Z,97525.41
2022-11-21T21:40:27.030Z,97522.50
2022-11-21T21:46:28.939Z,97523.50
2022-11-21T21:52:30.828Z,97508.53
2022-11-21T21:58:36.043Z,97511.66
2022-11-21T22:04:38.032Z,97484.31
2022-11-21T22:10:39.988Z,97489.97
2022-11-21T22:16:46.561Z,97476.75
2022-11-21T22:22:48.502Z,97475.31
2022-11-21T22:28:51.068Z,97459.22
2022-11-21T22:34:52.984Z,97451.53
2022-11-21T22:41:09.049Z,97447.09
2022-11-21T22:47:11.042Z,97437.50
2022-11-21T22:53:12.959Z,97425.91
2022-11-21T22:59:15.038Z,97414.91
2022-11-21T23:05:17.810Z,97415.56
2022-11-21T23:11:24.329Z,97403.31
2022-11-21T23:17:26.315Z,97397.19
2022-11-21T23:23:28.653Z,97395.81
2022-11-21T23:29:35.539Z,97392.22
2022-11-21T23:35:37.676Z,97387.19
2022-11-21T23:41:40.796Z,97372.22
2022-11-21T23:47:42.705Z,97370.19
2022-11-21T23:53:44.607Z,97381.84
2022-11-21T23:59:53.470Z,97386.75
